Time;durP1;ratioP1;P1;durP2;ratioP2;P2;SDS_P1;SDS_P2;PMS_P1;PMS_P2;Temp;Humidity;BMP_temperature;BMP_pressure;BME280_temperature;BME280_humidity;BME280_pressure;Samples;Min_cycle;Max_cycle;Signal;HPM_P1;HPM_P2
2022/08/24 00:02:21;;;;;;;2.40;1.50;;;;;;;20.56;51.35;101069.47;5118747;28;20231;-84
2022/08/24 00:04:48;;;;;;;2.57;1.50;;;;;;;20.52;51.67;101066.22;5117518;28;20230;-85
2022/08/24 00:07:15;;;;;;;4.00;1.70;;;;;;;20.52;51.90;101068.91;5117081;28;20572;-85
2022/08/24 00:09:42;;;;;;;3.77;1.60;;;;;;;20.49;51.96;101068.34;5118352;28;20222;-84
2022/08/24 00:12:09;;;;;;;6.17;1.77;;;;;;;20.43;52.03;101069.81;5118148;28;20291;-85
2022/08/24 00:14:36;;;;;;;4.80;1.90;;;;;;;20.37;52.29;101073.13;5117995;27;20570;-85
2022/08/24 00:17:03;;;;;;;2.07;1.63;;;;;;;20.30;52.35;101067.44;5117659;28;20295;-84
2022/08/24 00:19:32;;;;;;;2.77;1.60;;;;;;;20.25;52.71;101071.56;5117457;28;20217;-84
2022/08/24 00:21:59;;;;;;;3.70;1.50;;;;;;;20.21;52.82;101070.19;5118663;28;20216;-84
2022/08/24 00:24:26;;;;;;;3.97;1.70;;;;;;;20.19;52.71;101080.28;5118480;28;20200;-84
2022/08/24 00:26:54;;;;;;;3.23;1.80;;;;;;;20.16;53.07;101069.78;5118247;28;20213;-83
2022/08/24 00:29:22;;;;;;;4.60;1.77;;;;;;;20.14;53.04;101069.91;5118478;28;20217;-84
2022/08/24 00:31:49;;;;;;;3.07;1.90;;;;;;;20.14;53.40;101071.78;5118186;28;20208;-84
2022/08/24 00:34:17;;;;;;;6.30;1.80;;;;;;;20.11;53.77;101070.22;5118095;28;20214;-84
2022/08/24 00:36:46;;;;;;;3.63;1.60;;;;;;;20.10;53.89;101065.81;5118882;28;20232;-83
2022/08/24 00:39:13;;;;;;;3.33;1.60;;;;;;;20.08;53.62;101071.34;5118608;28;20289;-83
2022/08/24 00:41:41;;;;;;;4.63;2.00;;;;;;;20.03;53.68;101064.72;5118624;28;20717;-83
2022/08/24 00:44:08;;;;;;;2.23;1.70;;;;;;;19.97;53.93;101068.84;5117959;28;20290;-83
2022/08/24 00:46:42;;;;;;;2.80;1.57;;;;;;;19.94;53.89;101065.56;5118067;28;20321;-83
2022/08/24 00:49:12;;;;;;;2.23;1.40;;;;;;;19.90;53.87;101064.16;5118396;28;20290;-84
2022/08/24 00:51:43;;;;;;;2.03;1.70;;;;;;;19.86;53.78;101062.78;5118691;28;20255;-84
2022/08/24 00:54:15;;;;;;;6.83;1.80;;;;;;;19.79;54.09;101062.50;5118512;28;20201;-84
2022/08/24 00:56:48;;;;;;;3.87;2.00;;;;;;;19.77;54.36;101061.78;5117356;28;20299;-84
2022/08/24 00:59:21;;;;;;;1.97;1.67;;;;;;;19.73;54.37;101065.78;5117236;28;20186;-84
2022/08/24 01:01:48;;;;;;;3.53;1.53;;;;;;;19.67;54.16;101058.28;5118000;28;20195;-84
2022/08/24 01:04:21;;;;;;;4.70;1.80;;;;;;;19.64;54.67;101061.25;5117533;28;20210;-84
2022/08/24 01:06:48;;;;;;;3.20;1.77;;;;;;;19.61;54.90;101058.84;5118315;28;20211;-85
2022/08/24 01:09:17;;;;;;;3.33;1.60;;;;;;;19.58;55.00;101067.22;5118209;28;20738;-85
2022/08/24 01:11:43;;;;;;;3.40;1.90;;;;;;;19.56;55.15;101067.38;5116814;28;20204;-84
2022/08/24 01:14:10;;;;;;;2.93;1.80;;;;;;;19.52;54.95;101070.53;5117401;28;20669;-85
2022/08/24 01:19:32;;;;;;;7.40;1.77;;;;;;;19.44;55.32;101065.81;5117524;28;20749;-85
2022/08/24 01:22:10;;;;;;;4.03;2.07;;;;;;;19.40;55.51;101073.34;5116824;28;20205;-85
2022/08/24 01:24:39;;;;;;;3.17;1.97;;;;;;;19.38;55.85;101071.78;5116160;27;20184;-86
2022/08/24 01:27:09;;;;;;;3.27;2.00;;;;;;;19.36;56.03;101073.75;5116878;28;20211;-85
2022/08/24 01:29:38;;;;;;;6.97;2.33;;;;;;;19.34;56.12;101076.63;5115876;28;20202;-84
2022/08/24 01:32:06;;;;;;;4.73;2.17;;;;;;;19.33;56.26;101074.94;5116899;28;20612;-84
2022/08/24 01:34:33;;;;;;;2.37;1.60;;;;;;;19.33;56.12;101076.78;5116627;28;20208;-84
2022/08/24 01:37:01;;;;;;;2.53;1.80;;;;;;;19.31;56.07;101068.81;5116312;28;20226;-84
2022/08/24 01:39:31;;;;;;;1.97;1.60;;;;;;;19.29;56.16;101070.81;5116525;28;20233;-83
2022/08/24 01:42:00;;;;;;;3.27;1.70;;;;;;;19.27;56.21;101070.09;5116704;28;20190;-84
2022/08/24 01:44:32;;;;;;;2.73;2.10;;;;;;;19.26;56.36;101067.53;5117335;28;20203;-84
2022/08/24 01:46:59;;;;;;;3.00;1.80;;;;;;;19.22;56.39;101077.75;5117424;28;20194;-85
2022/08/24 01:49:28;;;;;;;2.73;1.90;;;;;;;19.12;56.44;101078.75;5116948;28;20207;-84
2022/08/24 01:51:56;;;;;;;4.47;2.37;;;;;;;19.00;56.97;101075.34;5117585;28;20712;-84
2022/08/24 01:54:22;;;;;;;3.97;1.87;;;;;;;18.90;57.58;101077.19;5114598;28;20206;-84
2022/08/24 01:56:49;;;;;;;3.90;2.13;;;;;;;18.82;57.90;101074.31;5117981;28;20256;-85
2022/08/24 01:59:18;;;;;;;2.67;2.33;;;;;;;18.75;58.22;101070.50;5119451;28;20212;-85
2022/08/24 02:01:50;;;;;;;5.87;2.33;;;;;;;18.69;58.44;101078.13;5119270;28;20216;-85
2022/08/24 02:04:17;;;;;;;3.97;2.07;;;;;;;18.66;58.84;101075.72;5119932;28;20218;-83
2022/08/24 02:06:44;;;;;;;4.47;2.10;;;;;;;18.64;59.09;101077.69;5119403;28;20231;-83
2022/08/24 02:09:11;;;;;;;2.57;1.80;;;;;;;18.65;59.05;101083.94;5118807;28;20204;-83
2022/08/24 02:11:39;;;;;;;3.87;1.90;;;;;;;18.65;59.19;101081.25;5119031;28;20611;-83
2022/08/24 02:14:06;;;;;;;2.70;1.83;;;;;;;18.65;58.89;101076.69;5116704;28;20206;-83
2022/08/24 02:16:34;;;;;;;3.63;1.80;;;;;;;18.66;58.79;101086.50;5116092;28;20620;-83
2022/08/24 02:19:01;;;;;;;2.80;2.03;;;;;;;18.64;58.71;101091.19;5116355;28;20208;-83
2022/08/24 02:21:28;;;;;;;5.73;2.00;;;;;;;18.62;58.79;101087.81;5115601;27;20583;-84
2022/08/24 02:23:54;;;;;;;3.13;1.93;;;;;;;18.59;58.10;101095.31;5114801;28;20324;-84
2022/08/24 02:26:21;;;;;;;3.00;1.80;;;;;;;18.56;58.82;101093.69;5114463;28;20220;-84
2022/08/24 02:28:47;;;;;;;2.60;2.07;;;;;;;18.53;58.76;101101.22;5115025;28;20215;-83
2022/08/24 02:31:15;;;;;;;4.03;2.27;;;;;;;18.46;58.70;101100.88;5115373;28;20202;-83
2022/08/24 02:33:43;;;;;;;4.10;2.10;;;;;;;18.34;58.74;101102.84;5115136;28;20297;-84
2022/08/24 02:36:12;;;;;;;2.53;1.90;;;;;;;18.27;59.20;101103.53;5115013;28;20229;-83
2022/08/24 02:38:38;;;;;;;4.20;2.17;;;;;;;18.23;59.60;101105.66;5114832;28;20613;-83
2022/08/24 02:41:05;;;;;;;5.60;2.30;;;;;;;18.19;59.55;101100.66;5116056;28;20577;-83
2022/08/24 02:43:32;;;;;;;3.13;2.20;;;;;;;18.18;59.57;101109.72;5115740;28;20228;-83
2022/08/24 02:45:59;;;;;;;5.33;2.13;;;;;;;18.13;59.75;101099.34;5116595;28;20710;-83
2022/08/24 02:48:26;;;;;;;3.03;2.00;;;;;;;18.11;59.50;101109.41;5116425;28;20286;-83
2022/08/24 02:50:54;;;;;;;4.57;2.20;;;;;;;18.09;59.79;101107.88;5116334;28;20237;-83
2022/08/24 02:53:21;;;;;;;3.40;2.07;;;;;;;18.09;59.87;101105.16;5116069;28;20201;-83
2022/08/24 02:55:48;;;;;;;3.00;2.33;;;;;;;18.09;59.92;101103.31;5116068;28;20311;-83
2022/08/24 02:58:16;;;;;;;3.30;1.97;;;;;;;18.09;60.12;101105.16;5116884;28;20220;-83
2022/08/24 03:00:46;;;;;;;4.23;2.23;;;;;;;18.09;59.89;101107.88;5116080;28;20236;-83
2022/08/24 03:03:12;;;;;;;5.03;2.00;;;;;;;18.07;60.13;101108.00;5115550;28;20224;-82
2022/08/24 03:05:40;;;;;;;3.17;2.27;;;;;;;18.05;60.08;101107.28;5115559;28;20226;-83
2022/08/24 03:08:07;;;;;;;3.00;2.13;;;;;;;18.04;60.24;101103.72;5116492;28;20215;-83
2022/08/24 03:10:34;;;;;;;2.77;1.83;;;;;;;18.01;60.06;101103.13;5116033;28;20220;-83
2022/08/24 03:13:02;;;;;;;3.73;2.20;;;;;;;17.93;60.08;101106.47;5115862;28;20200;-84
2022/08/24 03:15:29;;;;;;;2.50;2.10;;;;;;;17.81;60.23;101112.09;5115260;28;20225;-83
2022/08/24 03:17:56;;;;;;;5.63;2.53;;;;;;;17.74;60.86;101106.34;5115432;28;20212;-83
2022/08/24 03:20:24;;;;;;;3.93;2.20;;;;;;;17.71;61.35;101111.19;5115333;28;20578;-83
2022/08/24 03:22:51;;;;;;;5.77;2.10;;;;;;;17.70;61.59;101113.03;5119259;28;20234;-83
2022/08/24 03:25:23;;;;;;;3.63;2.37;;;;;;;17.67;61.75;101114.13;5119758;28;20255;-83
2022/08/24 03:27:50;;;;;;;5.53;2.13;;;;;;;17.64;61.88;101110.84;5119058;28;20215;-83
2022/08/24 03:30:17;;;;;;;2.93;2.00;;;;;;;17.65;62.15;101116.09;5119136;28;20206;-83
2022/08/24 03:32:43;;;;;;;3.77;2.07;;;;;;;17.68;62.24;101109.59;5119369;28;20248;-83
2022/08/24 03:35:12;;;;;;;2.60;2.20;;;;;;;17.69;62.08;101106.78;5118812;28;20224;-83
2022/08/24 03:37:39;;;;;;;2.90;2.07;;;;;;;17.72;62.01;101105.66;5118936;28;20201;-83
2022/08/24 03:40:08;;;;;;;3.73;2.23;;;;;;;17.75;61.99;101108.06;5118600;28;20207;-83
2022/08/24 03:42:36;;;;;;;3.60;2.10;;;;;;;17.75;61.98;101107.22;5119046;27;20229;-83
2022/08/24 03:45:03;;;;;;;5.13;2.33;;;;;;;17.73;62.15;101102.00;5119196;28;20221;-83
2022/08/24 03:47:29;;;;;;;3.00;1.70;;;;;;;17.71;62.20;101106.66;5118392;27;20214;-83
2022/08/24 03:49:56;;;;;;;4.07;2.17;;;;;;;17.70;62.49;101110.31;5118998;28;20206;-83
2022/08/24 03:52:22;;;;;;;3.30;2.27;;;;;;;17.69;62.47;101109.47;5119508;28;20215;-82
2022/08/24 03:54:49;;;;;;;4.50;2.37;;;;;;;17.70;62.53;101107.63;5119306;28;20264;-83
2022/08/24 03:57:15;;;;;;;5.00;2.40;;;;;;;17.71;62.36;101111.19;5118843;28;20202;-83
2022/08/24 03:59:43;;;;;;;4.87;2.27;;;;;;;17.71;62.35;101109.34;5117995;28;20205;-83
2022/08/24 04:02:11;;;;;;;4.30;2.50;;;;;;;17.72;62.33;101113.75;5117728;28;20291;-82
2022/08/24 04:04:37;;;;;;;3.43;2.00;;;;;;;17.72;62.31;101108.34;5117043;28;20261;-83
2022/08/24 04:07:04;;;;;;;5.83;2.30;;;;;;;17.72;62.36;101108.34;5116751;28;20212;-84
2022/08/24 04:09:31;;;;;;;6.07;2.50;;;;;;;17.74;62.36;101113.59;5116404;28;20234;-83
2022/08/24 04:11:57;;;;;;;4.53;2.20;;;;;;;17.73;62.31;101115.47;5116838;28;20242;-83
2022/08/24 04:14:24;;;;;;;4.30;2.40;;;;;;;17.71;62.27;101112.03;5117499;28;20204;-83
2022/08/24 04:16:52;;;;;;;4.67;2.30;;;;;;;17.68;62.38;101117.69;5118328;28;20316;-83
2022/08/24 04:19:19;;;;;;;3.57;2.10;;;;;;;17.63;62.28;101114.47;5100749;28;20673;-83
2022/08/24 04:21:45;;;;;;;6.20;2.60;;;;;;;17.61;62.59;101119.16;5097645;28;20188;-83
2022/08/24 04:24:12;;;;;;;3.40;2.17;;;;;;;17.59;62.74;101118.41;5096920;28;20257;-83
2022/08/24 04:26:41;;;;;;;5.20;2.60;;;;;;;17.59;62.79;101123.81;5097411;28;20710;-84
2022/08/24 04:29:10;;;;;;;6.50;2.53;;;;;;;17.56;62.97;101107.91;5097327;28;20689;-83
2022/08/24 04:31:38;;;;;;;2.60;2.40;;;;;;;17.56;62.94;101113.28;5097434;28;20219;-83
2022/08/24 04:34:06;;;;;;;3.20;2.23;;;;;;;17.56;62.88;101118.69;5097661;28;20295;-83
2022/08/24 04:36:34;;;;;;;4.60;2.50;;;;;;;17.54;63.15;101116.13;5094752;28;20225;-83
2022/08/24 04:39:01;;;;;;;4.03;2.33;;;;;;;17.53;63.12;101122.50;5095826;28;20208;-83
2022/08/24 04:41:27;;;;;;;5.83;2.90;;;;;;;17.51;63.17;101115.53;5096008;28;20284;-83
2022/08/24 04:43:54;;;;;;;4.40;3.10;;;;;;;17.48;63.32;101115.78;5096400;28;20225;-83
2022/08/24 04:46:21;;;;;;;4.67;2.83;;;;;;;17.47;63.48;101117.63;5095525;28;20219;-83
2022/08/24 04:48:49;;;;;;;3.97;2.40;;;;;;;17.46;63.68;101117.75;5095710;28;20209;-83
2022/08/24 04:51:18;;;;;;;3.27;2.57;;;;;;;17.47;64.04;101122.16;5095372;28;20202;-83
2022/08/24 04:53:46;;;;;;;5.43;2.80;;;;;;;17.47;64.04;101130.25;5094881;28;20209;-83
2022/08/24 04:56:18;;;;;;;3.87;2.73;;;;;;;17.46;64.22;101129.38;5095288;28;20220;-83
2022/08/24 04:58:46;;;;;;;5.30;2.97;;;;;;;17.46;64.35;101134.78;5095533;28;20221;-85
2022/08/24 05:01:14;;;;;;;4.63;2.90;;;;;;;17.47;64.42;101131.09;5095981;28;20210;-84
2022/08/24 05:03:41;;;;;;;4.37;2.57;;;;;;;17.48;64.48;101137.34;5095168;28;20230;-84
2022/08/24 05:06:11;;;;;;;3.23;2.20;;;;;;;17.49;64.56;101136.34;5095486;28;20229;-83
2022/08/24 05:08:39;;;;;;;5.53;3.20;;;;;;;17.48;64.70;101140.88;5095696;28;20211;-83
2022/08/24 05:11:07;;;;;;;7.33;2.50;;;;;;;17.48;64.74;101142.72;5094175;28;20658;-83
2022/08/24 05:13:33;;;;;;;4.20;2.50;;;;;;;17.47;64.85;101147.25;5094494;28;20219;-83
2022/08/24 05:16:00;;;;;;;4.57;2.80;;;;;;;17.49;65.06;101147.97;5093788;28;20227;-82
2022/08/24 05:18:28;;;;;;;4.80;2.77;;;;;;;17.50;64.99;101151.53;5094322;28;20241;-83
2022/08/24 05:20:55;;;;;;;5.03;3.13;;;;;;;17.51;65.08;101154.09;5093972;28;20247;-82
2022/08/24 05:23:22;;;;;;;6.17;3.47;;;;;;;17.52;65.16;101158.50;5094332;28;20208;-83
2022/08/24 05:25:51;;;;;;;6.97;3.27;;;;;;;17.54;65.20;101161.06;5093666;28;20743;-83
2022/08/24 05:28:17;;;;;;;7.13;3.70;;;;;;;17.53;65.35;101157.53;5095054;28;20606;-83
2022/08/24 05:30:44;;;;;;;3.97;2.80;;;;;;;17.55;65.41;101163.63;5095765;28;20205;-83
2022/08/24 05:33:11;;;;;;;5.07;3.10;;;;;;;17.59;65.64;101161.50;5096391;28;20227;-83
2022/08/24 05:35:38;;;;;;;5.03;2.90;;;;;;;17.60;65.71;101161.38;5095402;28;20228;-83
2022/08/24 05:38:05;;;;;;;5.20;2.97;;;;;;;17.66;66.11;101169.00;5094283;28;20205;-82
2022/08/24 05:40:32;;;;;;;5.63;3.20;;;;;;;17.72;66.62;101167.63;5094038;28;20250;-83
2022/08/24 05:43:00;;;;;;;6.63;3.83;;;;;;;17.80;67.01;101158.88;5094360;28;20212;-83
2022/08/24 05:45:26;;;;;;;6.10;3.23;;;;;;;17.86;67.09;101163.75;5093176;28;20235;-83
2022/08/24 05:47:53;;;;;;;6.53;3.40;;;;;;;17.92;66.93;101161.34;5093957;28;20597;-83
2022/08/24 05:50:19;;;;;;;3.83;3.37;;;;;;;17.98;67.20;101163.53;5094167;28;20208;-84
2022/08/24 05:52:46;;;;;;;11.80;3.37;;;;;;;18.06;67.06;101160.19;5093963;28;20216;-83
2022/08/24 05:55:12;;;;;;;5.27;2.90;;;;;;;18.11;67.02;101162.47;5093971;28;20224;-83
2022/08/24 05:57:39;;;;;;;8.90;3.40;;;;;;;18.18;67.32;101155.56;5094442;28;20202;-83
2022/08/24 06:00:10;;;;;;;12.13;4.20;;;;;;;18.27;67.40;101163.69;5092896;28;20209;-83
2022/08/24 06:02:37;;;;;;;7.60;4.27;;;;;;;18.34;67.14;101161.31;5094639;28;20229;-84
2022/08/24 06:05:04;;;;;;;15.03;4.20;;;;;;;18.44;66.91;101164.06;5094096;28;20225;-83
2022/08/24 06:07:31;;;;;;;7.73;3.67;;;;;;;18.52;66.90;101157.00;5094790;28;20210;-83
2022/08/24 06:09:58;;;;;;;5.97;3.63;;;;;;;18.62;66.64;101167.88;5093418;28;20877;-83
2022/08/24 06:12:24;;;;;;;7.63;3.20;;;;;;;18.71;66.81;101164.34;5094895;28;20210;-83
2022/08/24 06:14:51;;;;;;;4.03;3.20;;;;;;;18.85;66.58;101173.91;5095236;28;20313;-83
2022/08/24 06:17:19;;;;;;;7.13;3.23;;;;;;;18.98;66.34;101175.38;5095114;28;20206;-83
2022/08/24 06:19:45;;;;;;;4.90;2.93;;;;;;;19.09;66.19;101182.50;5094241;28;20609;-82
2022/08/24 06:22:12;;;;;;;5.07;3.07;;;;;;;19.23;66.25;101176.69;5094082;28;20195;-82
2022/08/24 06:27:24;;;;;;;5.10;3.47;;;;;;;19.52;65.76;101175.91;5094717;28;20552;-82
2022/08/24 06:29:53;;;;;;;5.10;2.90;;;;;;;19.65;65.38;101182.72;5094260;28;20211;-83
2022/08/24 06:32:22;;;;;;;4.23;2.97;;;;;;;19.76;64.85;101187.09;5094812;28;20622;-82
2022/08/24 06:34:48;;;;;;;4.07;2.87;;;;;;;19.87;64.59;101183.41;5103884;28;20220;-82
2022/08/24 06:37:15;;;;;;;4.17;3.10;;;;;;;20.00;64.50;101184.81;5099113;28;20211;-83
2022/08/24 06:39:42;;;;;;;4.20;3.00;;;;;;;20.13;63.76;101178.22;5093808;28;20211;-83
2022/08/24 06:42:09;;;;;;;4.60;2.77;;;;;;;20.27;63.84;101180.47;5093507;28;20205;-82
2022/08/24 06:44:40;;;;;;;3.97;2.40;;;;;;;20.41;63.42;101180.06;5100779;27;20237;-84
2022/08/24 06:47:06;;;;;;;7.83;2.97;;;;;;;20.54;62.79;101182.41;5111676;27;20208;-85
2022/08/24 06:49:36;;;;;;;5.73;2.23;;;;;;;20.67;62.42;101186.47;5110461;27;20538;-85
2022/08/24 06:52:03;;;;;;;5.67;2.77;;;;;;;20.80;61.97;101189.69;5111543;27;20623;-84
2022/08/24 06:54:29;;;;;;;3.60;2.13;;;;;;;20.97;61.79;101185.31;5101442;28;20205;-85
2022/08/24 06:56:57;;;;;;;6.90;2.57;;;;;;;21.14;61.10;101186.34;5094613;28;20286;-85
2022/08/24 06:59:25;;;;;;;6.17;2.57;;;;;;;21.28;60.70;101188.59;5102918;28;20296;-84
2022/08/24 07:01:52;;;;;;;3.28;2.45;;;;;;;21.43;60.38;101195.19;5107758;28;20241;-83
2022/08/24 07:04:18;;;;;;;2.80;2.50;;;;;;;21.60;59.95;101198.06;5105555;28;20597;-84
2022/08/24 07:06:46;;;;;;;3.13;2.60;;;;;;;21.75;59.42;101185.66;5106361;28;20259;-84
2022/08/24 07:09:13;;;;;;;3.47;2.47;;;;;;;21.91;59.05;101195.78;5101724;28;20217;-85
2022/08/24 07:11:40;;;;;;;3.22;2.88;;;;;;;22.06;58.51;101197.78;5104486;28;20576;-85
2022/08/24 07:14:07;;;;;;;3.03;2.10;;;;;;;22.20;57.87;101203.69;5110594;28;20226;-85
2022/08/24 07:16:34;;;;;;;5.68;2.72;;;;;;;22.34;57.44;101197.66;5106724;28;20589;-84
2022/08/24 07:19:01;;;;;;;4.63;2.40;;;;;;;22.50;57.15;101197.75;5110710;28;20654;-85
2022/08/24 07:21:28;;;;;;;4.43;2.50;;;;;;;22.65;56.86;101200.72;5099866;27;20219;-85
2022/08/24 07:23:58;;;;;;;3.35;1.90;;;;;;;22.78;55.87;101207.41;5101075;28;20210;-85
2022/08/24 07:26:27;;;;;;;7.70;2.40;;;;;;;22.92;55.36;101196.97;5099459;28;20305;-85
2022/08/24 07:28:59;;;;;;;3.95;2.10;;;;;;;23.05;55.24;101203.63;5112068;28;20686;-86
2022/08/24 07:31:26;;;;;;;4.53;2.60;;;;;;;23.23;54.90;101200.81;5099309;28;20200;-86
2022/08/24 07:33:53;;;;;;;2.30;1.90;;;;;;;23.39;54.49;101200.00;5103443;28;20672;-85
2022/08/24 07:36:19;;;;;;;5.78;2.40;;;;;;;23.52;53.78;101201.22;5102109;27;20223;-85
2022/08/24 07:38:46;;;;;;;3.55;2.30;;;;;;;23.68;53.43;101210.41;5104374;28;20212;-86
2022/08/24 07:41:17;;;;;;;5.07;2.25;;;;;;;23.84;53.15;101204.97;5111859;28;20215;-85
2022/08/24 07:43:45;;;;;;;3.63;2.30;;;;;;;24.00;53.02;101206.88;5101367;28;20213;-86
2022/08/24 07:46:12;;;;;;;3.38;2.47;;;;;;;24.20;52.37;101214.50;5104312;28;20237;-85
2022/08/24 07:48:39;;;;;;;6.20;2.17;;;;;;;24.33;51.52;101213.16;5106626;28;20235;-86
2022/08/24 07:51:10;;;;;;;3.50;2.42;;;;;;;24.48;50.86;101209.56;5096486;28;20199;-86
2022/08/24 07:53:36;;;;;;;5.30;2.40;;;;;;;24.63;50.24;101209.69;5104776;28;20204;-86
2022/08/24 07:56:03;;;;;;;3.00;2.30;;;;;;;24.80;49.45;101203.16;5102091;28;20215;-86
2022/08/24 07:58:32;;;;;;;2.50;2.05;;;;;;;24.95;48.88;101211.47;5098929;28;20208;-86
2022/08/24 08:00:58;;;;;;;3.85;2.03;;;;;;;25.10;48.45;101214.28;5094681;28;20207;-85
2022/08/24 08:03:26;;;;;;;2.33;2.13;;;;;;;25.24;48.14;101211.66;5098220;28;20199;-86
2022/08/24 08:05:56;;;;;;;4.18;2.28;;;;;;;25.37;47.88;101221.97;5104201;28;20239;-86
2022/08/24 08:08:23;;;;;;;2.53;2.30;;;;;;;25.50;47.16;101219.50;5105439;27;20294;-86
2022/08/24 08:10:50;;;;;;;3.90;2.30;;;;;;;25.61;46.84;101218.25;5108656;27;20386;-86
2022/08/24 08:13:17;;;;;;;2.90;2.03;;;;;;;25.73;46.05;101221.44;5106983;27;20207;-86
2022/08/24 08:15:45;;;;;;;5.80;2.33;;;;;;;25.82;45.76;101225.78;5109767;27;20253;-86
2022/08/24 08:18:12;;;;;;;4.65;2.20;;;;;;;25.93;45.13;101222.66;5121405;27;20209;-86
2022/08/24 08:20:40;;;;;;;4.25;2.20;;;;;;;26.09;44.87;101221.66;5109092;27;20220;-86
2022/08/24 08:25:53;;;;;;;7.28;2.30;;;;;;;26.37;44.25;101213.72;5107463;27;20606;-86
2022/08/24 08:28:20;;;;;;;4.53;2.03;;;;;;;26.47;43.80;101215.16;5099109;28;20210;-86
2022/08/24 08:30:48;;;;;;;4.28;2.25;;;;;;;26.60;43.86;101219.97;5110549;27;21460;-86
2022/08/24 08:33:15;;;;;;;3.90;2.00;;;;;;;26.71;43.37;101211.28;5110920;27;20554;-86
2022/08/24 08:35:43;;;;;;;2.78;2.03;;;;;;;26.85;42.82;101213.19;5102362;27;20729;-86
2022/08/24 08:38:10;;;;;;;3.67;2.55;;;;;;;26.98;42.54;101214.44;5119633;27;20222;-86
2022/08/24 08:40:54;;;;;;;4.15;2.10;;;;;;;27.12;42.51;101213.56;5100607;28;20204;-87
2022/08/24 08:43:36;;;;;;;3.33;1.77;;;;;;;27.25;41.85;101208.22;5109429;28;20191;-86
2022/08/24 08:46:16;;;;;;;3.08;2.33;;;;;;;27.39;41.84;101209.25;5105621;28;20230;-85
2022/08/24 08:49:05;;;;;;;4.00;1.90;;;;;;;27.48;41.36;101208.94;5103281;27;20294;-87
2022/08/24 08:52:12;;;;;;;5.95;2.00;;;;;;;27.60;40.87;101206.56;5101496;28;20690;-87
2022/08/24 08:54:53;;;;;;;3.83;2.00;;;;;;;27.76;40.95;101202.72;5104598;27;20203;-87
2022/08/24 08:57:32;;;;;;;3.20;2.00;;;;;;;27.89;40.63;101209.16;5101947;27;20216;-87
2022/08/24 09:00:09;;;;;;;3.15;2.05;;;;;;;28.01;39.62;101206.72;5106962;27;20196;-86
2022/08/24 09:03:11;;;;;;;1.95;1.85;;;;;;;28.07;39.29;101208.69;5103223;27;20254;-86
2022/08/24 09:05:56;;;;;;;3.38;2.00;;;;;;;28.16;38.77;101202.00;5107482;27;20310;-87
2022/08/24 09:08:33;;;;;;;2.58;1.88;;;;;;;28.21;38.23;101202.31;5095888;28;20265;-87
2022/08/24 09:11:07;;;;;;;3.58;1.60;;;;;;;28.31;38.27;101201.94;5110809;27;20253;-87
2022/08/24 09:13:59;;;;;;;3.20;1.90;;;;;;;28.43;38.00;101202.25;5101584;27;20204;-87
2022/08/24 09:16:49;;;;;;;2.47;1.60;;;;;;;28.48;38.10;101192.41;5105451;27;20230;-87
2022/08/24 09:19:32;;;;;;;3.20;1.98;;;;;;;28.59;38.14;101188.22;5095053;28;20230;-86
2022/08/24 09:22:18;;;;;;;3.53;1.80;;;;;;;28.67;37.80;101188.03;5104800;27;20191;-86
2022/08/24 09:25:02;;;;;;;3.67;1.70;;;;;;;28.78;37.88;101183.91;5098700;28;20227;-86
2022/08/24 09:27:40;;;;;;;4.38;1.90;;;;;;;28.82;37.17;101183.34;5108565;27;20846;-86
2022/08/24 09:30:12;;;;;;;5.35;1.90;;;;;;;28.87;37.09;101183.53;5106965;27;20202;-86
2022/08/24 09:32:56;;;;;;;2.90;1.77;;;;;;;28.97;37.30;101181.28;5109022;27;20211;-87
2022/08/24 09:35:33;;;;;;;4.93;1.80;;;;;;;29.07;36.69;101182.78;5104093;27;20215;-86
2022/08/24 09:38:07;;;;;;;3.80;1.70;;;;;;;29.09;36.45;101178.78;5106999;27;20569;-86
2022/08/24 09:40:44;;;;;;;1.83;1.60;;;;;;;29.13;36.45;101182.81;5096927;27;20202;-87
2022/08/24 09:43:47;;;;;;;3.17;1.80;;;;;;;29.19;36.95;101170.19;5108418;27;20191;-87
2022/08/24 09:46:51;;;;;;;3.75;1.85;;;;;;;29.22;36.30;101178.81;5103135;28;20233;-86
2022/08/24 09:49:50;;;;;;;3.58;1.77;;;;;;;29.31;36.30;101182.25;5107545;28;20234;-86
2022/08/24 09:52:56;;;;;;;2.63;2.00;;;;;;;29.40;36.21;101171.94;5103904;27;20199;-86
2022/08/24 09:56:01;;;;;;;3.50;1.55;;;;;;;29.50;35.93;101184.22;5104582;27;20654;-87
2022/08/24 09:58:45;;;;;;;3.15;1.75;;;;;;;29.55;35.07;101181.72;5103933;27;20286;-86
2022/08/24 10:01:21;;;;;;;2.33;1.70;;;;;;;29.61;34.72;101180.84;5095620;27;20196;-86
2022/08/24 10:04:01;;;;;;;4.20;1.95;;;;;;;29.72;35.28;101181.31;5103894;27;20210;-87
2022/08/24 10:06:37;;;;;;;2.45;1.65;;;;;;;29.81;34.62;101175.38;5103970;27;20245;-86
2022/08/24 10:09:22;;;;;;;3.28;1.63;;;;;;;29.87;34.82;101177.31;5107772;27;20202;-86
2022/08/24 10:11:56;;;;;;;1.85;1.52;;;;;;;29.96;34.32;101175.16;5099691;28;20814;-87
2022/08/24 10:14:44;;;;;;;3.15;1.90;;;;;;;30.04;34.47;101166.75;5107804;27;20202;-86
2022/08/24 10:17:22;;;;;;;2.10;1.67;;;;;;;30.10;34.08;101173.31;5100901;27;20647;-86
2022/08/24 10:20:01;;;;;;;2.22;1.52;;;;;;;30.13;33.98;101159.97;5102568;28;20215;-86
2022/08/24 10:22:49;;;;;;;2.30;1.40;;;;;;;30.17;33.34;101169.50;5100863;27;20202;-87
2022/08/24 10:25:30;;;;;;;2.20;1.67;;;;;;;30.21;33.58;101167.16;5100140;27;20666;-86
2022/08/24 10:28:06;;;;;;;2.63;1.83;;;;;;;30.26;32.86;101162.72;5104751;27;20214;-86
2022/08/24 10:30:57;;;;;;;3.03;1.65;;;;;;;30.32;32.83;101161.00;5105563;27;20203;-87
2022/08/24 10:33:27;;;;;;;3.95;1.70;;;;;;;30.35;32.86;101164.19;5098358;28;20883;-86
2022/08/24 10:36:28;;;;;;;3.42;1.60;;;;;;;30.41;32.29;101161.63;5096670;27;20223;-86
2022/08/24 10:45:30;;;;;;;2.25;1.50;;;;;;;30.42;31.32;101155.94;5107328;27;20238;-87
2022/08/24 10:48:16;;;;;;;2.78;1.67;;;;;;;30.46;32.31;101150.81;5091857;28;20199;-87
2022/08/24 10:50:57;;;;;;;2.75;1.30;;;;;;;30.53;31.91;101143.41;5104796;27;20286;-86
2022/08/24 10:53:26;;;;;;;2.50;1.42;;;;;;;30.57;31.34;101145.56;5101759;28;20206;-87
2022/08/24 10:56:12;;;;;;;4.63;1.48;;;;;;;30.70;32.15;101152.91;5110381;28;20231;-86
2022/08/24 10:58:49;;;;;;;4.43;1.63;;;;;;;30.76;31.71;101145.72;5102150;28;20577;-86
2022/08/24 11:01:20;;;;;;;1.85;1.23;;;;;;;30.84;31.44;101143.53;5100653;28;20218;-87
2022/08/24 11:03:53;;;;;;;3.15;1.25;;;;;;;30.89;31.11;101143.75;5112713;28;20191;-87
2022/08/24 11:06:22;;;;;;;2.92;1.50;;;;;;;30.96;31.60;101147.31;5105399;28;20229;-86
2022/08/24 11:08:57;;;;;;;3.28;1.50;;;;;;;31.04;30.84;101146.19;5107035;28;20207;-87
2022/08/24 11:11:28;;;;;;;1.95;1.10;;;;;;;31.07;29.60;101140.25;5105179;28;20258;-87
2022/08/24 11:13:59;;;;;;;3.13;1.10;;;;;;;31.04;28.43;101144.28;5112246;28;20724;-87
2022/08/24 11:16:30;;;;;;;2.67;1.25;;;;;;;31.09;28.62;101146.41;5105318;28;20212;-87
2022/08/24 11:18:58;;;;;;;2.45;1.38;;;;;;;31.15;28.69;101147.47;5108275;28;20206;-87
2022/08/24 11:21:39;;;;;;;3.70;1.00;;;;;;;31.23;28.88;101147.19;5103985;28;20215;-86
2022/08/24 11:24:10;;;;;;;2.25;1.20;;;;;;;31.29;28.77;101135.31;5101808;28;20203;-87
2022/08/24 11:26:50;;;;;;;1.65;1.13;;;;;;;31.35;28.89;101138.00;5107391;28;20227;-87
2022/08/24 11:29:18;;;;;;;2.40;1.38;;;;;;;31.43;28.65;101139.66;5099307;28;20201;-86
2022/08/24 11:31:51;;;;;;;2.25;1.20;;;;;;;31.48;28.19;101139.00;5099025;28;20200;-87
2022/08/24 11:34:21;;;;;;;3.15;1.40;;;;;;;31.51;27.77;101135.81;5100393;28;20195;-86
2022/08/24 11:36:48;;;;;;;2.00;1.35;;;;;;;31.54;27.63;101133.41;5101097;28;20226;-86
2022/08/24 11:39:21;;;;;;;2.95;1.10;;;;;;;31.58;27.23;101136.56;5104449;27;20227;-87
2022/08/24 11:41:58;;;;;;;6.25;1.98;;;;;;;31.59;26.87;101130.00;5100945;27;20195;-87
2022/08/24 11:44:40;;;;;;;2.40;1.55;;;;;;;31.64;26.97;101130.19;5117553;27;20203;-87
2022/08/24 11:47:32;;;;;;;2.15;1.38;;;;;;;31.73;27.85;101128.84;5104194;28;20220;-87
2022/08/24 11:50:07;;;;;;;3.83;1.77;;;;;;;31.79;28.31;101130.72;5110883;28;20574;-87
2022/08/24 11:52:46;;;;;;;3.40;1.70;;;;;;;31.87;28.65;101126.84;5101463;28;20202;-87
2022/08/24 11:55:19;;;;;;;2.80;1.30;;;;;;;31.91;27.82;101125.31;5108782;27;20219;-85
2022/08/24 11:57:55;;;;;;;1.83;1.30;;;;;;;31.94;27.60;101122.09;5097268;28;20572;-84